VCE weather

Venice Marco Polo Airport
Venice, Veneto, Italy

Public forecast

Using degrees Celsius for public forecast. Weather courtesy of forecast.io.

METAR (pilot weather report)

Retrieved 2019/03/27 00:20 UTC (7 minutes ago):

LIPZ 270020Z 06009KT CAVOK 08/01 Q1024 NOSIG

TAF (pilot weather forecast)

Forecast is more than 12 hours old.

Retrieved 2019/03/26 00:21 UTC (1 day ago):

TAF LIPZ 262300Z 2700/2806 02008KT CAVOK BECMG 2713/2715 08012KT BECMG 2800/2802 02008KT